Time;durP1;ratioP1;P1;durP2;ratioP2;P2;SDS_P1;SDS_P2;PMS_P1;PMS_P2;Temp;Humidity;BMP_temperature;BMP_pressure;BME280_temperature;BME280_humidity;BME280_pressure;Samples;Min_cycle;Max_cycle;Signal;HPM_P1;HPM_P2
2021/06/08 00:00:23;;;;;;;16.40;14.60;;;;;;;;;;5095828;28;20612;-56
2021/06/08 00:02:52;;;;;;;17.37;14.17;;;;;;;;;;5095785;28;20458;-53
2021/06/08 00:05:28;;;;;;;20.07;15.70;;;;;;;;;;5095873;28;20549;-58
2021/06/08 00:07:55;;;;;;;16.17;14.10;;;;;;;;;;5095841;28;20467;-56
2021/06/08 00:10:23;;;;;;;16.17;13.40;;;;;;;;;;5095965;28;20505;-60
2021/06/08 00:12:51;;;;;;;15.27;12.30;;;;;;;;;;5096655;28;20475;-53
2021/06/08 00:15:18;;;;;;;19.70;15.73;;;;;;;;;;5093328;28;20523;-56
2021/06/08 00:17:48;;;;;;;16.63;14.90;;;;;;;;;;5095914;28;20617;-57
2021/06/08 00:20:52;;;;;;;15.03;13.43;;;;;;;;;;5095531;28;20460;-47
2021/06/08 00:23:20;;;;;;;20.03;15.60;;;;;;;;;;5093644;28;20471;-57
2021/06/08 00:25:47;;;;;;;27.80;23.80;;;;;;;;;;5095877;28;20510;-59
2021/06/08 00:28:16;;;;;;;18.37;15.00;;;;;;;;;;5096770;28;20487;-57
2021/06/08 00:30:43;;;;;;;20.63;13.40;;;;;;;;;;5096640;28;20440;-53
2021/06/08 00:33:09;;;;;;;20.70;14.20;;;;;;;;;;5096635;28;20429;-55
2021/06/08 00:38:41;;;;;;;19.67;15.80;;;;;;;;;;5096654;28;20470;-56
2021/06/08 00:41:08;;;;;;;20.97;16.57;;;;;;;;;;5096109;28;20459;-53
2021/06/08 00:43:35;;;;;;;22.23;15.83;;;;;;;;;;5095980;28;20456;-54
2021/06/08 00:46:17;;;;;;;21.73;15.07;;;;;;;;;;5096254;28;20495;-58
2021/06/08 00:48:44;;;;;;;27.47;23.37;;;;;;;;;;5095944;28;20499;-58
2021/06/08 00:51:11;;;;;;;70.00;58.43;;;;;;;;;;5096129;28;20451;-59
2021/06/08 00:53:59;;;;;;;57.30;50.17;;;;;;;;;;5096330;28;20490;-54
2021/06/08 00:56:28;;;;;;;35.83;32.03;;;;;;;;;;5096218;28;20452;-54
2021/06/08 00:58:55;;;;;;;47.20;37.87;;;;;;;;;;5095964;28;20444;-54
2021/06/08 01:01:22;;;;;;;39.87;35.17;;;;;;;;;;5095228;28;20515;-52
2021/06/08 01:03:49;;;;;;;54.00;48.13;;;;;;;;;;5095416;28;20428;-57
2021/06/08 01:06:18;;;;;;;25.10;20.67;;;;;;;;;;5095665;28;20477;-52
2021/06/08 01:08:46;;;;;;;24.53;21.30;;;;;;;;;;5095352;28;20467;-57
2021/06/08 01:11:14;;;;;;;19.97;17.13;;;;;;;;;;5077625;28;20494;-51
2021/06/08 01:13:47;;;;;;;14.53;12.47;;;;;;;;;;5095566;28;20467;-57
2021/06/08 01:16:14;;;;;;;17.70;13.40;;;;;;;;;;5093856;28;20484;-57
2021/06/08 01:18:41;;;;;;;18.03;13.77;;;;;;;;;;5095201;28;20515;-51
2021/06/08 01:21:10;;;;;;;17.57;13.10;;;;;;;;;;5095164;28;20544;-56
2021/06/08 01:23:37;;;;;;;39.53;32.43;;;;;;;;;;5095512;28;20468;-58
2021/06/08 01:26:05;;;;;;;25.60;21.93;;;;;;;;;;5096205;28;20498;-58
2021/06/08 01:28:58;;;;;;;18.80;15.40;;;;;;;;;;5099072;28;20455;-56
2021/06/08 01:31:25;;;;;;;16.03;13.80;;;;;;;;;;5098785;28;20507;-57
2021/06/08 01:33:52;;;;;;;13.33;12.00;;;;;;;;;;5099336;28;20452;-58
2021/06/08 01:36:29;;;;;;;15.80;12.10;;;;;;;;;;5098922;28;20471;-50
2021/06/08 01:38:56;;;;;;;15.20;12.80;;;;;;;;;;5098497;28;20501;-56
2021/06/08 01:41:33;;;;;;;15.53;13.00;;;;;;;;;;5098597;28;20448;-52
2021/06/08 01:44:13;;;;;;;16.13;14.43;;;;;;;;;;5098653;28;20424;-55
2021/06/08 01:46:40;;;;;;;16.07;14.33;;;;;;;;;;5098437;28;20444;-56
2021/06/08 01:49:07;;;;;;;15.07;13.47;;;;;;;;;;5098239;28;20452;-58
2021/06/08 01:51:51;;;;;;;17.63;15.67;;;;;;;;;;5098168;28;20465;-59
2021/06/08 01:54:22;;;;;;;18.73;15.67;;;;;;;;;;5096413;28;20499;-59
2021/06/08 01:56:53;;;;;;;16.13;13.90;;;;;;;;;;5098914;28;20448;-57
2021/06/08 01:59:22;;;;;;;15.97;14.10;;;;;;;;;;5098283;28;20469;-56
2021/06/08 02:01:51;;;;;;;16.23;14.10;;;;;;;;;;5098351;28;20436;-59
2021/06/08 02:04:36;;;;;;;17.27;15.47;;;;;;;;;;5098233;28;20412;-59
2021/06/08 02:07:07;;;;;;;21.03;14.70;;;;;;;;;;5098454;28;20432;-57
2021/06/08 02:09:38;;;;;;;16.40;14.53;;;;;;;;;;5098326;28;20475;-57
2021/06/08 02:12:07;;;;;;;14.30;12.73;;;;;;;;;;5097697;28;20448;-59
2021/06/08 02:14:37;;;;;;;37.70;32.83;;;;;;;;;;5097689;28;20448;-55
2021/06/08 02:17:34;;;;;;;35.37;30.70;;;;;;;;;;5098087;28;20464;-54
2021/06/08 02:20:06;;;;;;;58.37;51.73;;;;;;;;;;5097925;28;20440;-55
2021/06/08 02:22:37;;;;;;;28.40;25.23;;;;;;;;;;5097709;28;20447;-57
2021/06/08 02:25:18;;;;;;;23.60;21.00;;;;;;;;;;5097970;28;20478;-57
2021/06/08 02:27:45;;;;;;;40.07;35.37;;;;;;;;;;5097615;28;20444;-59
2021/06/08 02:30:13;;;;;;;66.37;52.13;;;;;;;;;;5097813;28;20466;-52
2021/06/08 02:32:51;;;;;;;27.27;23.63;;;;;;;;;;5097664;28;20448;-55
2021/06/08 02:35:20;;;;;;;19.63;17.50;;;;;;;;;;5095682;28;20467;-54
2021/06/08 02:37:48;;;;;;;22.93;18.10;;;;;;;;;;5097441;28;20452;-55
2021/06/08 02:40:18;;;;;;;51.47;41.73;;;;;;;;;;5097468;28;20464;-52
2021/06/08 02:42:45;;;;;;;58.27;51.87;;;;;;;;;;5097721;28;20472;-57
2021/06/08 02:45:12;;;;;;;23.13;19.33;;;;;;;;;;5097813;28;20456;-53
2021/06/08 02:47:46;;;;;;;26.13;21.37;;;;;;;;;;5098141;28;20452;-58
2021/06/08 02:50:14;;;;;;;45.73;40.57;;;;;;;;;;5097559;28;20530;-55
2021/06/08 02:52:44;;;;;;;24.63;20.97;;;;;;;;;;5097837;28;20460;-56
2021/06/08 02:55:15;;;;;;;18.57;16.00;;;;;;;;;;5097465;28;20455;-55
2021/06/08 02:57:44;;;;;;;21.73;17.50;;;;;;;;;;5077703;28;20453;-52
2021/06/08 03:00:12;;;;;;;22.47;16.90;;;;;;;;;;5084570;28;20483;-61
2021/06/08 03:02:59;;;;;;;18.57;16.57;;;;;;;;;;5097157;28;20484;-55
2021/06/08 03:05:28;;;;;;;20.43;17.20;;;;;;;;;;5086157;28;20480;-58
2021/06/08 03:08:00;;;;;;;21.43;16.03;;;;;;;;;;5093055;28;20452;-55
2021/06/08 03:10:32;;;;;;;24.13;18.40;;;;;;;;;;5097045;28;20460;-56
2021/06/08 03:13:01;;;;;;;19.20;17.20;;;;;;;;;;5097157;28;20475;-56
2021/06/08 03:15:33;;;;;;;19.10;16.60;;;;;;;;;;5097356;28;20420;-55
2021/06/08 03:18:18;;;;;;;21.80;16.93;;;;;;;;;;5096891;28;20440;-57
2021/06/08 03:20:48;;;;;;;20.07;17.97;;;;;;;;;;5096731;28;20499;-53
2021/06/08 03:23:17;;;;;;;20.97;17.03;;;;;;;;;;5097216;28;20512;-56
2021/06/08 03:26:04;;;;;;;20.30;16.83;;;;;;;;;;5096837;28;20476;-56
2021/06/08 03:28:32;;;;;;;19.60;17.47;;;;;;;;;;5094381;28;20547;-57
2021/06/08 03:30:59;;;;;;;21.33;17.83;;;;;;;;;;5097196;28;20456;-53
2021/06/08 03:33:26;;;;;;;21.60;17.03;;;;;;;;;;5096301;28;20543;-57
2021/06/08 03:35:54;;;;;;;21.07;18.27;;;;;;;;;;5095715;28;20494;-58
2021/06/08 03:38:33;;;;;;;23.00;20.07;;;;;;;;;;5096804;28;20424;-60
2021/06/08 03:41:03;;;;;;;21.33;18.23;;;;;;;;;;5096975;28;20472;-53
2021/06/08 03:43:35;;;;;;;24.17;20.00;;;;;;;;;;5096614;28;20448;-52
2021/06/08 03:46:35;;;;;;;21.53;19.33;;;;;;;;;;5081275;28;20531;-51
2021/06/08 03:49:02;;;;;;;22.37;20.00;;;;;;;;;;5078310;28;20457;-58
2021/06/08 03:51:30;;;;;;;23.53;18.87;;;;;;;;;;5076328;28;20488;-54
2021/06/08 03:53:57;;;;;;;21.90;16.93;;;;;;;;;;5076339;28;20445;-54
2021/06/08 03:56:25;;;;;;;21.27;18.93;;;;;;;;;;5075835;28;20426;-56
2021/06/08 03:58:59;;;;;;;23.03;18.83;;;;;;;;;;5076675;28;20521;-58
2021/06/08 04:01:27;;;;;;;18.90;16.90;;;;;;;;;;5095838;28;20443;-54
2021/06/08 04:03:54;;;;;;;21.20;18.23;;;;;;;;;;5095372;28;20452;-55
2021/06/08 04:06:47;;;;;;;20.17;17.90;;;;;;;;;;5095526;28;20492;-56
2021/06/08 04:09:17;;;;;;;17.00;15.20;;;;;;;;;;5093164;28;20534;-55
2021/06/08 04:11:44;;;;;;;24.87;17.93;;;;;;;;;;5095902;28;20463;-53
2021/06/08 04:14:21;;;;;;;17.20;15.30;;;;;;;;;;5095619;28;20459;-59
2021/06/08 04:16:48;;;;;;;19.50;15.20;;;;;;;;;;5095843;28;20467;-55
2021/06/08 04:19:16;;;;;;;17.80;15.90;;;;;;;;;;5095871;28;20475;-54
2021/06/08 04:21:51;;;;;;;18.47;16.53;;;;;;;;;;5094311;28;20521;-59
2021/06/08 04:24:19;;;;;;;21.30;16.07;;;;;;;;;;5075698;28;20449;-53
2021/06/08 04:26:47;;;;;;;22.80;18.83;;;;;;;;;;5075628;28;20503;-56
2021/06/08 04:29:18;;;;;;;24.00;18.23;;;;;;;;;;5075475;28;20472;-60
2021/06/08 04:31:47;;;;;;;24.93;18.47;;;;;;;;;;5074982;28;20573;-56
2021/06/08 04:34:31;;;;;;;24.97;18.93;;;;;;;;;;5074503;28;20447;-55
2021/06/08 04:36:58;;;;;;;21.50;17.63;;;;;;;;;;5075475;28;20461;-52
2021/06/08 04:39:25;;;;;;;21.23;17.50;;;;;;;;;;5075210;28;20449;-55
2021/06/08 04:41:54;;;;;;;17.77;15.77;;;;;;;;;;5075592;28;20464;-61
2021/06/08 04:44:22;;;;;;;20.10;17.53;;;;;;;;;;5088187;28;20519;-55
2021/06/08 04:46:51;;;;;;;20.50;18.30;;;;;;;;;;5095426;28;20439;-59
2021/06/08 04:52:31;;;;;;;22.40;18.47;;;;;;;;;;5078817;28;20564;-54
2021/06/08 04:55:05;;;;;;;22.70;18.80;;;;;;;;;;5075460;28;20472;-57
2021/06/08 04:57:42;;;;;;;21.60;19.37;;;;;;;;;;5075123;28;20445;-56
2021/06/08 05:00:11;;;;;;;25.50;21.70;;;;;;;;;;5075650;28;20483;-60
2021/06/08 05:02:47;;;;;;;24.53;21.13;;;;;;;;;;5078344;28;20418;-58
2021/06/08 05:05:18;;;;;;;26.00;19.63;;;;;;;;;;5078469;28;20488;-55
2021/06/08 05:07:54;;;;;;;21.90;19.60;;;;;;;;;;5078938;28;20528;-57
2021/06/08 05:10:34;;;;;;;23.00;20.50;;;;;;;;;;5078904;28;20460;-57
2021/06/08 05:13:03;;;;;;;26.33;20.77;;;;;;;;;;5078469;28;20433;-58
2021/06/08 05:15:31;;;;;;;26.47;21.63;;;;;;;;;;5078746;28;20484;-56
2021/06/08 05:18:00;;;;;;;25.93;22.23;;;;;;;;;;5078457;28;20540;-57
2021/06/08 05:20:27;;;;;;;24.70;20.60;;;;;;;;;;5078319;28;20506;-60
2021/06/08 05:22:55;;;;;;;24.70;22.10;;;;;;;;;;5078289;28;20527;-58
2021/06/08 05:25:37;;;;;;;28.00;22.50;;;;;;;;;;5077644;28;20508;-60
2021/06/08 05:28:06;;;;;;;30.77;24.00;;;;;;;;;;5070667;28;20459;-55
2021/06/08 05:30:33;;;;;;;28.87;22.83;;;;;;;;;;5062175;28;20513;-58
2021/06/08 05:36:05;;;;;;;25.80;21.67;;;;;;;;;;5056859;28;20488;-56
2021/06/08 05:38:40;;;;;;;27.87;23.80;;;;;;;;;;5058099;28;20445;-57
2021/06/08 05:41:17;;;;;;;25.23;22.53;;;;;;;;;;5052088;28;20525;-55
2021/06/08 05:43:44;;;;;;;25.40;22.63;;;;;;;;;;5037849;28;20458;-57
2021/06/08 05:46:13;;;;;;;28.90;25.40;;;;;;;;;;5037736;28;20499;-55
2021/06/08 05:49:00;;;;;;;34.33;24.17;;;;;;;;;;5038235;28;20485;-54
2021/06/08 05:51:32;;;;;;;25.27;22.57;;;;;;;;;;5050953;28;20461;-58
2021/06/08 05:54:00;;;;;;;26.07;23.30;;;;;;;;;;5057544;28;20466;-56
2021/06/08 05:59:36;;;;;;;40.17;25.50;;;;;;;;;;5071419;28;20921;-63
2021/06/08 06:02:03;;;;;;;30.23;23.43;;;;;;;;;;5076995;28;20460;-59
2021/06/08 06:04:33;;;;;;;30.80;24.07;;;;;;;;;;5077634;28;20441;-55
2021/06/08 06:07:01;;;;;;;28.17;23.73;;;;;;;;;;5076728;28;20456;-60
2021/06/08 06:09:32;;;;;;;24.97;21.63;;;;;;;;;;5060380;28;20441;-55
2021/06/08 06:12:06;;;;;;;23.03;20.50;;;;;;;;;;5076586;28;20469;-53
2021/06/08 06:14:35;;;;;;;29.73;23.07;;;;;;;;;;5076324;28;20464;-57
2021/06/08 06:17:03;;;;;;;28.17;21.83;;;;;;;;;;5069863;28;20449;-60
2021/06/08 06:19:42;;;;;;;28.73;22.00;;;;;;;;;;5057892;28;20468;-57
2021/06/08 06:22:10;;;;;;;23.37;19.13;;;;;;;;;;5081253;28;20487;-60
2021/06/08 06:24:38;;;;;;;24.13;21.03;;;;;;;;;;5086916;28;20491;-52
2021/06/08 06:27:07;;;;;;;24.83;20.97;;;;;;;;;;5077540;28;20456;-54
2021/06/08 06:29:34;;;;;;;26.27;20.67;;;;;;;;;;5077247;28;20464;-57
2021/06/08 06:32:02;;;;;;;24.97;19.93;;;;;;;;;;5076907;28;20428;-56
2021/06/08 06:34:30;;;;;;;22.20;19.80;;;;;;;;;;5082758;28;20460;-57
2021/06/08 06:36:58;;;;;;;23.57;21.10;;;;;;;;;;5097124;28;20468;-56
2021/06/08 06:39:27;;;;;;;21.40;19.10;;;;;;;;;;5097345;28;20455;-59
2021/06/08 06:45:03;;;;;;;25.13;19.00;;;;;;;;;;5090663;28;20492;-58
2021/06/08 06:47:38;;;;;;;25.20;21.73;;;;;;;;;;5077321;28;20472;-56
2021/06/08 06:50:12;;;;;;;20.70;17.60;;;;;;;;;;5080324;28;20452;-57
2021/06/08 06:52:39;;;;;;;19.50;17.53;;;;;;;;;;5076360;28;20441;-54
2021/06/08 06:55:16;;;;;;;21.40;17.57;;;;;;;;;;5076933;28;20426;-60
2021/06/08 07:00:48;;;;;;;20.33;17.47;;;;;;;;;;5083552;28;20459;-56
2021/06/08 07:03:16;;;;;;;21.90;18.70;;;;;;;;;;5075805;28;20472;-56
2021/06/08 07:06:15;;;;;;;25.17;19.87;;;;;;;;;;5076064;28;20532;-58
2021/06/08 07:08:42;;;;;;;19.30;17.30;;;;;;;;;;5092102;28;20488;-59
2021/06/08 07:11:12;;;;;;;18.80;16.80;;;;;;;;;;5096449;28;20464;-59
2021/06/08 07:16:44;;;;;;;18.13;16.20;;;;;;;;;;5084940;28;20452;-58
2021/06/08 07:19:13;;;;;;;17.53;15.83;;;;;;;;;;5059177;28;20496;-63
2021/06/08 07:24:43;;;;;;;15.67;14.00;;;;;;;;;;5091122;28;20499;-56
2021/06/08 07:27:13;;;;;;;18.57;16.63;;;;;;;;;;5084703;28;20494;-53
2021/06/08 07:29:40;;;;;;;16.77;13.97;;;;;;;;;;5075634;28;20453;-53
2021/06/08 07:32:08;;;;;;;17.73;15.10;;;;;;;;;;5075996;28;20461;-58
2021/06/08 07:34:39;;;;;;;17.50;14.60;;;;;;;;;;5076133;28;20488;-61
2021/06/08 07:37:07;;;;;;;16.40;14.70;;;;;;;;;;5075713;28;20520;-56
2021/06/08 07:39:51;;;;;;;15.57;12.90;;;;;;;;;;5075657;28;20620;-53
2021/06/08 07:42:24;;;;;;;16.47;14.77;;;;;;;;;;5075837;28;20527;-57
2021/06/08 07:44:53;;;;;;;18.83;15.17;;;;;;;;;;5092420;28;20492;-57
2021/06/08 07:47:21;;;;;;;17.50;14.97;;;;;;;;;;5095249;28;20440;-58
2021/06/08 07:49:49;;;;;;;15.33;13.80;;;;;;;;;;5095191;28;20448;-56
2021/06/08 07:52:18;;;;;;;15.30;13.80;;;;;;;;;;5094906;28;20460;-56
2021/06/08 07:57:50;;;;;;;17.60;13.13;;;;;;;;;;5085510;28;20409;-53
2021/06/08 08:00:18;;;;;;;15.50;10.70;;;;;;;;;;5085196;28;20439;-58
2021/06/08 08:02:54;;;;;;;11.73;10.53;;;;;;;;;;5076508;28;20449;-56
2021/06/08 08:05:23;;;;;;;16.63;12.63;;;;;;;;;;5094536;28;20483;-57
2021/06/08 08:07:50;;;;;;;23.20;16.20;;;;;;;;;;5094756;28;20440;-57
2021/06/08 08:10:36;;;;;;;21.20;16.60;;;;;;;;;;5087850;28;20445;-56
2021/06/08 08:13:05;;;;;;;22.27;15.83;;;;;;;;;;5075087;28;20448;-56
2021/06/08 08:15:32;;;;;;;17.00;15.03;;;;;;;;;;5075130;28;20464;-57
2021/06/08 08:18:07;;;;;;;17.80;16.00;;;;;;;;;;5088677;28;20448;-56
2021/06/08 08:20:41;;;;;;;20.10;16.30;;;;;;;;;;5076497;28;20455;-55
2021/06/08 08:23:08;;;;;;;16.60;13.70;;;;;;;;;;5074532;28;20443;-52
2021/06/08 08:25:38;;;;;;;17.73;15.87;;;;;;;;;;5082830;28;20484;-56
2021/06/08 08:28:32;;;;;;;19.00;16.93;;;;;;;;;;5075860;28;20451;-57
2021/06/08 08:34:07;;;;;;;19.63;15.13;;;;;;;;;;5091670;28;20458;-57
2021/06/08 08:36:37;;;;;;;22.00;18.20;;;;;;;;;;5093145;28;20459;-58
2021/06/08 08:39:19;;;;;;;18.50;16.60;;;;;;;;;;5094822;28;20531;-54
2021/06/08 08:42:13;;;;;;;18.07;16.27;;;;;;;;;;5094420;28;20455;-57
2021/06/08 08:45:03;;;;;;;20.60;18.47;;;;;;;;;;5093872;28;20444;-58
2021/06/08 08:47:31;;;;;;;19.13;17.13;;;;;;;;;;5094482;28;20518;-58
2021/06/08 08:50:00;;;;;;;17.73;15.97;;;;;;;;;;5094091;28;20430;-58
2021/06/08 08:52:46;;;;;;;23.17;19.20;;;;;;;;;;5091164;28;20441;-56
2021/06/08 08:55:13;;;;;;;23.73;21.27;;;;;;;;;;5074358;28;20491;-59
2021/06/08 08:57:41;;;;;;;27.13;20.53;;;;;;;;;;5073093;28;20441;-53
2021/06/08 09:00:08;;;;;;;25.77;22.03;;;;;;;;;;5083587;28;20529;-52
2021/06/08 09:02:36;;;;;;;22.93;19.70;;;;;;;;;;5094198;28;20451;-61
2021/06/08 09:05:25;;;;;;;21.23;19.00;;;;;;;;;;5094492;28;20509;-60
2021/06/08 09:07:57;;;;;;;22.60;19.70;;;;;;;;;;5093199;28;20553;-56
2021/06/08 09:10:24;;;;;;;28.77;21.57;;;;;;;;;;5082367;28;20731;-54
2021/06/08 09:12:51;;;;;;;24.07;19.90;;;;;;;;;;5073882;28;20463;-57
2021/06/08 09:15:18;;;;;;;22.80;20.50;;;;;;;;;;5073935;28;20444;-58
2021/06/08 09:17:55;;;;;;;20.07;16.93;;;;;;;;;;5074021;28;20449;-53
2021/06/08 09:20:23;;;;;;;18.63;15.83;;;;;;;;;;5073770;28;20472;-59
2021/06/08 09:22:55;;;;;;;16.80;14.00;;;;;;;;;;5092161;28;20646;-52
2021/06/08 09:25:51;;;;;;;15.23;12.80;;;;;;;;;;5094061;28;20476;-50
2021/06/08 09:28:20;;;;;;;27.00;14.47;;;;;;;;;;5093744;28;20474;-56
2021/06/08 09:30:47;;;;;;;15.20;13.60;;;;;;;;;;5093634;28;20464;-57
2021/06/08 09:33:21;;;;;;;21.70;14.10;;;;;;;;;;5087471;28;20954;-61
2021/06/08 09:36:02;;;;;;;19.63;13.33;;;;;;;;;;5053662;28;20438;-48
2021/06/08 09:38:41;;;;;;;14.73;12.37;;;;;;;;;;5053508;28;20498;-59
2021/06/08 09:41:25;;;;;;;11.33;9.90;;;;;;;;;;5053641;28;20505;-53
2021/06/08 09:43:56;;;;;;;14.73;11.30;;;;;;;;;;5053635;28;20462;-56
2021/06/08 09:46:24;;;;;;;14.50;10.50;;;;;;;;;;5054133;28;20512;-55
2021/06/08 09:48:52;;;;;;;14.07;10.00;;;;;;;;;;5057220;28;20480;-62
2021/06/08 09:51:26;;;;;;;12.47;9.60;;;;;;;;;;5058011;28;20464;-58
2021/06/08 09:53:54;;;;;;;11.70;8.27;;;;;;;;;;5057606;28;20446;-63
2021/06/08 09:56:22;;;;;;;14.30;11.73;;;;;;;;;;5046301;28;20427;-55
2021/06/08 09:59:04;;;;;;;14.50;11.97;;;;;;;;;;5042893;28;20446;-60
2021/06/08 10:01:34;;;;;;;12.80;11.27;;;;;;;;;;5056894;28;20485;-61
2021/06/08 10:04:01;;;;;;;16.13;12.70;;;;;;;;;;5057117;28;20451;-57
2021/06/08 10:06:37;;;;;;;14.80;11.27;;;;;;;;;;5047650;28;20478;-52
2021/06/08 10:09:07;;;;;;;18.00;9.77;;;;;;;;;;5036648;28;20501;-53
2021/06/08 10:14:40;;;;;;;10.10;8.90;;;;;;;;;;5036848;28;20422;-55
2021/06/08 10:17:10;;;;;;;10.07;8.20;;;;;;;;;;5036508;28;20777;-54
2021/06/08 10:19:37;;;;;;;13.90;12.13;;;;;;;;;;5042166;28;20454;-56
2021/06/08 10:22:04;;;;;;;14.20;12.70;;;;;;;;;;5056507;28;20849;-53
2021/06/08 10:24:33;;;;;;;13.40;11.37;;;;;;;;;;5056915;28;20513;-57
2021/06/08 10:27:05;;;;;;;14.87;12.20;;;;;;;;;;5025412;28;20537;-59
2021/06/08 10:29:34;;;;;;;13.70;10.57;;;;;;;;;;5038785;28;20509;-58
2021/06/08 10:32:02;;;;;;;13.80;11.33;;;;;;;;;;5056172;28;20511;-61
2021/06/08 10:34:33;;;;;;;13.17;11.87;;;;;;;;;;5046686;28;20512;-60
2021/06/08 10:37:00;;;;;;;12.80;10.70;;;;;;;;;;5050413;28;20602;-54
2021/06/08 10:39:43;;;;;;;12.17;9.87;;;;;;;;;;5065606;28;20468;-57
2021/06/08 10:42:10;;;;;;;20.87;17.40;;;;;;;;;;5060173;28;20493;-58
2021/06/08 10:44:41;;;;;;;14.33;10.70;;;;;;;;;;5067937;28;20434;-55
2021/06/08 10:47:33;;;;;;;10.33;9.30;;;;;;;;;;5073172;28;20524;-59
2021/06/08 10:50:04;;;;;;;12.90;11.60;;;;;;;;;;5067779;28;20495;-54
2021/06/08 10:52:50;;;;;;;13.27;11.97;;;;;;;;;;5075157;28;20505;-58
2021/06/08 10:55:25;;;;;;;13.13;11.77;;;;;;;;;;5074348;28;20480;-52
2021/06/08 10:57:53;;;;;;;12.53;11.10;;;;;;;;;;5073668;28;20452;-49
2021/06/08 11:00:43;;;;;;;15.00;13.23;;;;;;;;;;5074405;28;20487;-54
2021/06/08 11:03:14;;;;;;;13.97;12.57;;;;;;;;;;5070018;28;20462;-56
2021/06/08 11:05:48;;;;;;;13.03;11.73;;;;;;;;;;5054411;28;20482;-58
2021/06/08 11:08:17;;;;;;;14.30;11.00;;;;;;;;;;5053854;28;20470;-59
2021/06/08 11:10:57;;;;;;;13.90;10.20;;;;;;;;;;5057480;28;20462;-57
2021/06/08 11:13:55;;;;;;;14.57;11.30;;;;;;;;;;5055205;28;20474;-57
2021/06/08 11:16:39;;;;;;;17.27;9.80;;;;;;;;;;5059409;28;20484;-55
2021/06/08 11:19:12;;;;;;;10.93;9.30;;;;;;;;;;5070282;28;20445;-61
2021/06/08 11:21:40;;;;;;;9.37;8.33;;;;;;;;;;5070485;28;20429;-58
2021/06/08 11:24:27;;;;;;;15.33;11.77;;;;;;;;;;5055295;28;20477;-59
2021/06/08 11:30:00;;;;;;;11.50;10.30;;;;;;;;;;5071974;28;20654;-61
2021/06/08 11:32:58;;;;;;;11.27;10.17;;;;;;;;;;5059183;28;20438;-58
2021/06/08 11:35:32;;;;;;;12.97;11.23;;;;;;;;;;5055122;28;20462;-55
2021/06/08 11:38:07;;;;;;;13.33;10.53;;;;;;;;;;5055798;28;20449;-59
2021/06/08 11:40:57;;;;;;;13.60;12.30;;;;;;;;;;5075147;28;20456;-56
2021/06/08 11:43:45;;;;;;;13.50;12.10;;;;;;;;;;5073662;28;20456;-57
2021/06/08 11:46:15;;;;;;;12.80;10.40;;;;;;;;;;5074117;28;20512;-57
2021/06/08 11:48:45;;;;;;;11.70;10.43;;;;;;;;;;5074716;28;20457;-57
2021/06/08 11:54:46;;;;;;;15.33;12.90;;;;;;;;;;5059269;28;20540;-55
2021/06/08 11:57:14;;;;;;;17.00;12.17;;;;;;;;;;5055095;28;20541;-58
2021/06/08 12:00:01;;;;;;;10.90;9.47;;;;;;;;;;5074750;28;20425;-58
2021/06/08 12:02:30;;;;;;;16.90;12.43;;;;;;;;;;5054383;28;20434;-57
2021/06/08 12:05:31;;;;;;;13.03;11.63;;;;;;;;;;5054201;28;20456;-58
2021/06/08 12:08:08;;;;;;;9.43;8.43;;;;;;;;;;5038140;28;20484;-59
2021/06/08 12:10:56;;;;;;;13.50;11.57;;;;;;;;;;5073059;28;20510;-55
2021/06/08 12:13:32;;;;;;;30.73;10.80;;;;;;;;;;5075590;28;20437;-56
2021/06/08 12:16:04;;;;;;;12.40;10.00;;;;;;;;;;5075100;28;20482;-62
2021/06/08 12:18:54;;;;;;;10.93;9.67;;;;;;;;;;5084841;28;20448;-58
2021/06/08 12:21:32;;;;;;;11.40;10.23;;;;;;;;;;5095728;28;20448;-55
2021/06/08 12:24:02;;;;;;;11.33;9.57;;;;;;;;;;5095451;28;20478;-57
2021/06/08 12:26:35;;;;;;;9.53;8.40;;;;;;;;;;5095295;28;20476;-63
2021/06/08 12:29:05;;;;;;;10.27;9.13;;;;;;;;;;5095888;28;20473;-57
2021/06/08 12:31:33;;;;;;;10.90;9.80;;;;;;;;;;5090548;28;20450;-56
2021/06/08 12:34:13;;;;;;;10.50;9.40;;;;;;;;;;5089501;28;20437;-58
2021/06/08 12:36:41;;;;;;;14.53;9.10;;;;;;;;;;5095784;28;20455;-55
2021/06/08 12:39:11;;;;;;;11.60;8.67;;;;;;;;;;5079373;28;20453;-57
2021/06/08 12:41:38;;;;;;;10.70;8.90;;;;;;;;;;5074701;28;20459;-60
2021/06/08 12:44:08;;;;;;;11.43;9.20;;;;;;;;;;5074905;28;20445;-61
2021/06/08 12:46:36;;;;;;;9.50;7.87;;;;;;;;;;5079737;28;20449;-59
2021/06/08 12:49:16;;;;;;;10.93;8.37;;;;;;;;;;5083284;28;20452;-55
2021/06/08 12:51:51;;;;;;;10.00;9.00;;;;;;;;;;5089120;28;20473;-51
2021/06/08 12:54:28;;;;;;;10.70;7.40;;;;;;;;;;5087768;28;20464;-55
2021/06/08 12:56:58;;;;;;;8.03;7.00;;;;;;;;;;5085887;28;20451;-57
2021/06/08 12:59:26;;;;;;;9.43;7.80;;;;;;;;;;5083533;28;20498;-54
2021/06/08 13:01:57;;;;;;;13.73;7.97;;;;;;;;;;5085956;28;20456;-58
2021/06/08 13:04:38;;;;;;;9.93;8.03;;;;;;;;;;5086516;28;20452;-59
2021/06/08 13:07:07;;;;;;;8.93;8.03;;;;;;;;;;5090763;28;20522;-53
2021/06/08 13:09:36;;;;;;;10.30;7.83;;;;;;;;;;5075483;28;20483;-54
2021/06/08 13:12:29;;;;;;;10.43;9.27;;;;;;;;;;5089733;28;20460;-59
2021/06/08 13:15:09;;;;;;;12.17;8.70;;;;;;;;;;5095734;28;20467;-58
2021/06/08 13:17:40;;;;;;;19.10;9.67;;;;;;;;;;5095533;28;20444;-54
2021/06/08 13:23:21;;;;;;;9.53;8.53;;;;;;;;;;5084069;28;20435;-58
2021/06/08 13:26:02;;;;;;;11.37;9.83;;;;;;;;;;5080272;28;20472;-58
2021/06/08 13:28:36;;;;;;;10.93;9.83;;;;;;;;;;5061344;28;20566;-57
2021/06/08 13:31:35;;;;;;;16.60;11.17;;;;;;;;;;5094152;28;20443;-54
2021/06/08 13:34:16;;;;;;;12.50;8.57;;;;;;;;;;5098260;28;20436;-54
2021/06/08 13:36:48;;;;;;;9.63;8.63;;;;;;;;;;5098286;28;20551;-59
2021/06/08 13:39:22;;;;;;;11.77;8.80;;;;;;;;;;5097182;28;20456;-55
2021/06/08 13:41:51;;;;;;;13.50;9.27;;;;;;;;;;5098377;28;20440;-58
2021/06/08 13:44:21;;;;;;;11.27;8.67;;;;;;;;;;5093488;28;20451;-55
2021/06/08 13:47:02;;;;;;;10.33;8.20;;;;;;;;;;5096783;28;20484;-59
2021/06/08 13:49:39;;;;;;;13.00;9.27;;;;;;;;;;5098049;28;20506;-58
2021/06/08 13:52:06;;;;;;;9.63;7.87;;;;;;;;;;5097320;28;20467;-57
2021/06/08 13:54:37;;;;;;;10.40;8.90;;;;;;;;;;5097688;28;20448;-52
2021/06/08 13:57:19;;;;;;;9.03;7.97;;;;;;;;;;5082341;28;20456;-53
2021/06/08 14:03:00;;;;;;;9.17;7.50;;;;;;;;;;5097610;28;20547;-61
2021/06/08 14:05:28;;;;;;;12.93;8.37;;;;;;;;;;5097917;28;20456;-53
2021/06/08 14:08:00;;;;;;;9.63;7.50;;;;;;;;;;5082786;28;20499;-60
2021/06/08 14:11:00;;;;;;;12.43;9.87;;;;;;;;;;5079036;28;20457;-58
2021/06/08 14:13:46;;;;;;;10.87;8.57;;;;;;;;;;5092463;28;20460;-59
2021/06/08 14:19:17;;;;;;;9.20;7.30;;;;;;;;;;5078626;28;20473;-51
2021/06/08 14:21:44;;;;;;;9.80;6.93;;;;;;;;;;5078806;28;20449;-58
2021/06/08 14:27:15;;;;;;;9.93;8.93;;;;;;;;;;5095321;28;20514;-61
2021/06/08 14:29:47;;;;;;;13.43;9.83;;;;;;;;;;5098640;28;20445;-59
2021/06/08 14:32:20;;;;;;;9.47;7.60;;;;;;;;;;5098871;28;20464;-56
2021/06/08 14:35:02;;;;;;;14.07;7.90;;;;;;;;;;5090207;28;20441;-55
2021/06/08 14:40:34;;;;;;;11.07;8.17;;;;;;;;;;5092582;28;20549;-56
2021/06/08 14:43:02;;;;;;;10.67;9.23;;;;;;;;;;5084126;28;20456;-54
2021/06/08 14:45:50;;;;;;;11.13;8.47;;;;;;;;;;5081873;28;20734;-58
2021/06/08 14:48:18;;;;;;;8.27;7.37;;;;;;;;;;5084343;28;20854;-56
2021/06/08 14:50:47;;;;;;;11.63;8.87;;;;;;;;;;5087975;28;20446;-58
2021/06/08 14:53:24;;;;;;;13.70;11.70;;;;;;;;;;5089032;28;20468;-58
2021/06/08 14:55:51;;;;;;;14.13;10.50;;;;;;;;;;5087895;28;20447;-55
2021/06/08 14:58:18;;;;;;;11.57;10.37;;;;;;;;;;5079890;28;20444;-51
2021/06/08 15:03:50;;;;;;;12.10;8.87;;;;;;;;;;5076029;28;20416;-55
2021/06/08 15:06:17;;;;;;;12.90;7.93;;;;;;;;;;5074879;28;20481;-54
2021/06/08 15:09:15;;;;;;;11.20;9.30;;;;;;;;;;5075570;28;20440;-56
2021/06/08 15:11:42;;;;;;;14.47;9.13;;;;;;;;;;5074796;28;20469;-58
2021/06/08 15:14:15;;;;;;;9.60;8.70;;;;;;;;;;5074632;28;20445;-60
2021/06/08 15:16:51;;;;;;;11.70;9.70;;;;;;;;;;5056716;28;20460;-55
2021/06/08 15:19:20;;;;;;;14.80;9.50;;;;;;;;;;5086874;28;20479;-55
2021/06/08 15:21:48;;;;;;;9.37;7.77;;;;;;;;;;5090642;28;20542;-57
2021/06/08 15:24:27;;;;;;;9.40;7.03;;;;;;;;;;5077165;28;20465;-56
2021/06/08 15:26:57;;;;;;;8.77;7.47;;;;;;;;;;5089668;28;20501;-60
2021/06/08 15:29:37;;;;;;;11.40;10.17;;;;;;;;;;5096622;28;20730;-54
2021/06/08 15:32:05;;;;;;;12.73;9.07;;;;;;;;;;5068269;28;20449;-57
2021/06/08 15:34:36;;;;;;;11.00;8.50;;;;;;;;;;5076683;28;20433;-54
2021/06/08 15:37:04;;;;;;;11.17;9.07;;;;;;;;;;5087527;28;20428;-55
2021/06/08 15:39:33;;;;;;;16.73;13.07;;;;;;;;;;5096596;28;20436;-53
2021/06/08 15:42:06;;;;;;;20.83;18.60;;;;;;;;;;5086930;28;20464;-58
2021/06/08 15:44:39;;;;;;;13.73;10.13;;;;;;;;;;5076354;28;20452;-57
2021/06/08 15:50:10;;;;;;;14.00;9.13;;;;;;;;;;5077579;28;20448;-58
2021/06/08 15:55:46;;;;;;;11.63;9.60;;;;;;;;;;5078719;28;20443;-53
2021/06/08 15:58:30;;;;;;;10.30;8.87;;;;;;;;;;5090988;28;20448;-62